sensor_id;sensor_type;location;lat;lon;timestamp;pressure;altitude;pressure_sealevel;temperature;humidity
7930;BME280;4010;42.698;23.124;2024-03-02T00:01:16;118349.16;;;-140.64;95.41
7930;BME280;4010;42.698;23.124;2024-03-02T00:03:42;118349.16;;;-140.64;96.36
7930;BME280;4010;42.698;23.124;2024-03-02T00:06:10;118349.16;;;-140.64;96.02
7930;BME280;4010;42.698;23.124;2024-03-02T00:08:37;118349.16;;;-140.64;96.06
7930;BME280;4010;42.698;23.124;2024-03-02T00:11:04;118349.16;;;-140.64;96.38
7930;BME280;4010;42.698;23.124;2024-03-02T00:13:31;118349.16;;;-140.64;96.66
7930;BME280;4010;42.698;23.124;2024-03-02T00:15:59;118349.16;;;-140.64;96.94
7930;BME280;4010;42.698;23.124;2024-03-02T00:18:30;118349.16;;;-140.64;96.48
7930;BME280;4010;42.698;23.124;2024-03-02T00:20:57;118349.16;;;-140.64;96.49
7930;BME280;4010;42.698;23.124;2024-03-02T00:23:27;118349.16;;;-140.64;96.28
7930;BME280;4010;42.698;23.124;2024-03-02T00:25:56;118349.16;;;-140.64;96.14
7930;BME280;4010;42.698;23.124;2024-03-02T00:28:25;118349.16;;;-140.64;96.54
7930;BME280;4010;42.698;23.124;2024-03-02T00:30:56;118349.16;;;-140.64;95.71
7930;BME280;4010;42.698;23.124;2024-03-02T00:33:25;118349.16;;;-140.64;94.91
7930;BME280;4010;42.698;23.124;2024-03-02T00:35:55;118349.16;;;-140.64;94.09
7930;BME280;4010;42.698;23.124;2024-03-02T00:38:22;118349.16;;;-140.64;95.29
7930;BME280;4010;42.698;23.124;2024-03-02T00:40:49;118349.16;;;-140.64;95.63
7930;BME280;4010;42.698;23.124;2024-03-02T00:43:43;118349.16;;;-140.64;95.57
7930;BME280;4010;42.698;23.124;2024-03-02T00:46:16;118349.16;;;-140.64;96.31
7930;BME280;4010;42.698;23.124;2024-03-02T00:48:53;118349.16;;;-140.64;96.84
7930;BME280;4010;42.698;23.124;2024-03-02T00:51:23;118349.16;;;-140.64;96.69
7930;BME280;4010;42.698;23.124;2024-03-02T00:53:50;118349.16;;;-140.64;96.19
7930;BME280;4010;42.698;23.124;2024-03-02T00:56:17;118349.16;;;-140.64;96.22
7930;BME280;4010;42.698;23.124;2024-03-02T00:58:44;118349.16;;;-140.64;96.63
7930;BME280;4010;42.698;23.124;2024-03-02T01:01:11;118349.16;;;-140.64;96.43
7930;BME280;4010;42.698;23.124;2024-03-02T01:03:38;118349.16;;;-140.64;96.62
7930;BME280;4010;42.698;23.124;2024-03-02T01:06:05;118349.16;;;-140.64;96.78
7930;BME280;4010;42.698;23.124;2024-03-02T01:08:34;118349.16;;;-140.64;97.08
7930;BME280;4010;42.698;23.124;2024-03-02T01:11:01;118349.16;;;-140.64;97.04
7930;BME280;4010;42.698;23.124;2024-03-02T01:13:28;118349.16;;;-140.64;97.30
7930;BME280;4010;42.698;23.124;2024-03-02T01:15:54;118349.16;;;-140.64;97.63
7930;BME280;4010;42.698;23.124;2024-03-02T01:18:21;118349.16;;;-140.64;97.67
7930;BME280;4010;42.698;23.124;2024-03-02T01:20:49;118349.16;;;-140.64;97.65
7930;BME280;4010;42.698;23.124;2024-03-02T01:23:17;118349.16;;;-140.64;97.06
7930;BME280;4010;42.698;23.124;2024-03-02T01:25:46;118349.16;;;-140.64;97.16
7930;BME280;4010;42.698;23.124;2024-03-02T01:28:13;118349.16;;;-140.64;97.27
7930;BME280;4010;42.698;23.124;2024-03-02T01:30:40;118349.16;;;-140.64;97.76
7930;BME280;4010;42.698;23.124;2024-03-02T01:33:07;118349.16;;;-140.64;98.07
7930;BME280;4010;42.698;23.124;2024-03-02T01:35:34;118349.16;;;-140.64;97.89
7930;BME280;4010;42.698;23.124;2024-03-02T01:38:01;118349.16;;;-140.64;98.03
7930;BME280;4010;42.698;23.124;2024-03-02T01:40:27;118349.16;;;-140.64;98.10
7930;BME280;4010;42.698;23.124;2024-03-02T01:42:56;118349.16;;;-140.64;97.87
7930;BME280;4010;42.698;23.124;2024-03-02T01:45:23;118349.16;;;-140.64;98.32
7930;BME280;4010;42.698;23.124;2024-03-02T01:47:50;118349.16;;;-140.64;98.11
7930;BME280;4010;42.698;23.124;2024-03-02T01:50:24;118349.16;;;-140.64;98.52
7930;BME280;4010;42.698;23.124;2024-03-02T01:52:51;118349.16;;;-140.64;98.85
7930;BME280;4010;42.698;23.124;2024-03-02T01:55:18;118349.16;;;-140.64;99.09
7930;BME280;4010;42.698;23.124;2024-03-02T01:57:45;118349.16;;;-140.64;99.59
7930;BME280;4010;42.698;23.124;2024-03-02T02:00:15;118349.16;;;-140.64;99.34
7930;BME280;4010;42.698;23.124;2024-03-02T02:02:42;118349.16;;;-140.64;99.54
7930;BME280;4010;42.698;23.124;2024-03-02T02:05:09;118349.16;;;-140.64;100.00
7930;BME280;4010;42.698;23.124;2024-03-02T02:07:36;118349.16;;;-140.64;100.00
7930;BME280;4010;42.698;23.124;2024-03-02T02:10:03;118349.16;;;-140.64;99.87
7930;BME280;4010;42.698;23.124;2024-03-02T02:12:30;118349.16;;;-140.64;99.97
7930;BME280;4010;42.698;23.124;2024-03-02T02:14:57;118349.16;;;-140.64;100.00
7930;BME280;4010;42.698;23.124;2024-03-02T02:17:25;118349.16;;;-140.64;100.00
7930;BME280;4010;42.698;23.124;2024-03-02T02:19:52;118349.16;;;-140.64;100.00
7930;BME280;4010;42.698;23.124;2024-03-02T02:22:20;118349.16;;;-140.64;100.00
7930;BME280;4010;42.698;23.124;2024-03-02T02:24:47;118349.16;;;-140.64;100.00
7930;BME280;4010;42.698;23.124;2024-03-02T02:27:13;118349.16;;;-140.64;100.00
7930;BME280;4010;42.698;23.124;2024-03-02T02:29:41;118349.16;;;-140.64;100.00
7930;BME280;4010;42.698;23.124;2024-03-02T02:32:07;118349.16;;;-140.64;100.00
7930;BME280;4010;42.698;23.124;2024-03-02T02:34:34;118349.16;;;-140.64;100.00
7930;BME280;4010;42.698;23.124;2024-03-02T02:37:01;118349.16;;;-140.64;100.00
7930;BME280;4010;42.698;23.124;2024-03-02T02:39:29;118349.16;;;-140.64;100.00
7930;BME280;4010;42.698;23.124;2024-03-02T02:41:56;118349.16;;;-140.64;100.00
7930;BME280;4010;42.698;23.124;2024-03-02T02:44:22;118349.16;;;-140.64;100.00
7930;BME280;4010;42.698;23.124;2024-03-02T02:46:49;118349.16;;;-140.64;100.00
7930;BME280;4010;42.698;23.124;2024-03-02T02:49:16;118349.16;;;-140.64;100.00
7930;BME280;4010;42.698;23.124;2024-03-02T02:51:43;118349.16;;;-140.64;100.00
7930;BME280;4010;42.698;23.124;2024-03-02T02:54:10;118349.16;;;-140.64;100.00
7930;BME280;4010;42.698;23.124;2024-03-02T02:56:38;118349.16;;;-140.64;100.00
7930;BME280;4010;42.698;23.124;2024-03-02T02:59:04;118349.16;;;-140.64;100.00
7930;BME280;4010;42.698;23.124;2024-03-02T03:01:31;118349.16;;;-140.64;100.00
7930;BME280;4010;42.698;23.124;2024-03-02T03:03:58;118349.16;;;-140.64;100.00
7930;BME280;4010;42.698;23.124;2024-03-02T03:06:25;118349.16;;;-140.64;100.00
7930;BME280;4010;42.698;23.124;2024-03-02T03:08:51;118349.16;;;-140.64;99.04
7930;BME280;4010;42.698;23.124;2024-03-02T03:11:18;118349.16;;;-140.64;99.27
7930;BME280;4010;42.698;23.124;2024-03-02T03:13:46;118349.16;;;-140.64;99.82
7930;BME280;4010;42.698;23.124;2024-03-02T03:16:13;118349.16;;;-140.64;99.38
7930;BME280;4010;42.698;23.124;2024-03-02T03:18:40;118349.16;;;-140.64;99.64
7930;BME280;4010;42.698;23.124;2024-03-02T03:21:07;118349.16;;;-140.64;99.62
7930;BME280;4010;42.698;23.124;2024-03-02T03:23:33;118349.16;;;-140.64;100.00
7930;BME280;4010;42.698;23.124;2024-03-02T03:26:00;118349.16;;;-140.64;99.98
7930;BME280;4010;42.698;23.124;2024-03-02T03:28:27;118349.16;;;-140.64;100.00
7930;BME280;4010;42.698;23.124;2024-03-02T03:30:55;118349.16;;;-140.64;100.00
7930;BME280;4010;42.698;23.124;2024-03-02T03:33:22;118349.16;;;-140.64;100.00
7930;BME280;4010;42.698;23.124;2024-03-02T03:35:49;118349.16;;;-140.64;100.00
7930;BME280;4010;42.698;23.124;2024-03-02T03:38:15;118349.16;;;-140.64;99.99
7930;BME280;4010;42.698;23.124;2024-03-02T03:40:42;118349.16;;;-140.64;100.00
7930;BME280;4010;42.698;23.124;2024-03-02T03:43:10;118349.16;;;-140.64;100.00
7930;BME280;4010;42.698;23.124;2024-03-02T03:45:36;118349.16;;;-140.64;100.00
7930;BME280;4010;42.698;23.124;2024-03-02T03:48:05;118349.16;;;-140.64;100.00
7930;BME280;4010;42.698;23.124;2024-03-02T03:50:32;118349.16;;;-140.64;100.00
7930;BME280;4010;42.698;23.124;2024-03-02T03:52:58;118349.16;;;-140.64;100.00
7930;BME280;4010;42.698;23.124;2024-03-02T03:55:25;118349.16;;;-140.64;100.00
7930;BME280;4010;42.698;23.124;2024-03-02T03:57:52;118349.16;;;-140.64;100.00
7930;BME280;4010;42.698;23.124;2024-03-02T04:00:19;118349.16;;;-140.64;100.00
7930;BME280;4010;42.698;23.124;2024-03-02T04:02:45;118349.16;;;-140.64;100.00
7930;BME280;4010;42.698;23.124;2024-03-02T04:05:13;118349.16;;;-140.64;100.00
7930;BME280;4010;42.698;23.124;2024-03-02T04:07:40;118349.16;;;-140.64;100.00
7930;BME280;4010;42.698;23.124;2024-03-02T04:10:09;118349.16;;;-140.64;100.00
7930;BME280;4010;42.698;23.124;2024-03-02T04:12:37;118349.16;;;-140.64;100.00
7930;BME280;4010;42.698;23.124;2024-03-02T04:15:05;118349.16;;;-140.64;100.00
7930;BME280;4010;42.698;23.124;2024-03-02T04:17:32;118349.16;;;-140.64;100.00
7930;BME280;4010;42.698;23.124;2024-03-02T04:20:01;118349.16;;;-140.64;100.00
7930;BME280;4010;42.698;23.124;2024-03-02T04:22:32;118349.16;;;-140.64;100.00
7930;BME280;4010;42.698;23.124;2024-03-02T04:24:59;118349.16;;;-140.64;100.00
7930;BME280;4010;42.698;23.124;2024-03-02T04:27:26;118349.16;;;-140.64;100.00
7930;BME280;4010;42.698;23.124;2024-03-02T04:29:53;118349.16;;;-140.64;100.00
7930;BME280;4010;42.698;23.124;2024-03-02T04:32:19;118349.16;;;-140.64;100.00
7930;BME280;4010;42.698;23.124;2024-03-02T04:34:46;118349.16;;;-140.64;100.00
7930;BME280;4010;42.698;23.124;2024-03-02T04:37:13;118349.16;;;-140.64;100.00
7930;BME280;4010;42.698;23.124;2024-03-02T04:39:41;118349.16;;;-140.64;100.00
7930;BME280;4010;42.698;23.124;2024-03-02T04:42:08;118349.16;;;-140.64;100.00
7930;BME280;4010;42.698;23.124;2024-03-02T04:44:34;118349.16;;;-140.64;100.00
7930;BME280;4010;42.698;23.124;2024-03-02T04:47:02;118349.16;;;-140.64;100.00
7930;BME280;4010;42.698;23.124;2024-03-02T04:49:29;118349.16;;;-140.64;100.00
7930;BME280;4010;42.698;23.124;2024-03-02T04:51:56;118349.16;;;-140.64;100.00
7930;BME280;4010;42.698;23.124;2024-03-02T04:54:23;118349.16;;;-140.64;100.00
7930;BME280;4010;42.698;23.124;2024-03-02T04:56:52;118349.16;;;-140.64;100.00
7930;BME280;4010;42.698;23.124;2024-03-02T04:59:19;118349.16;;;-140.64;100.00
7930;BME280;4010;42.698;23.124;2024-03-02T05:01:46;118349.16;;;-140.64;100.00
7930;BME280;4010;42.698;23.124;2024-03-02T05:04:13;118349.16;;;-140.64;100.00
7930;BME280;4010;42.698;23.124;2024-03-02T05:06:40;118349.16;;;-140.64;100.00
7930;BME280;4010;42.698;23.124;2024-03-02T05:09:07;118349.16;;;-140.64;100.00
7930;BME280;4010;42.698;23.124;2024-03-02T05:11:34;118349.16;;;-140.64;100.00
7930;BME280;4010;42.698;23.124;2024-03-02T05:14:22;118349.16;;;-140.64;100.00
7930;BME280;4010;42.698;23.124;2024-03-02T05:16:49;118349.16;;;-140.64;100.00
7930;BME280;4010;42.698;23.124;2024-03-02T05:19:16;118349.16;;;-140.64;100.00
7930;BME280;4010;42.698;23.124;2024-03-02T05:21:43;118349.16;;;-140.64;100.00
7930;BME280;4010;42.698;23.124;2024-03-02T05:24:09;118349.16;;;-140.64;100.00
7930;BME280;4010;42.698;23.124;2024-03-02T05:26:36;118349.16;;;-140.64;100.00
7930;BME280;4010;42.698;23.124;2024-03-02T05:29:03;118349.16;;;-140.64;100.00
7930;BME280;4010;42.698;23.124;2024-03-02T05:31:31;118349.16;;;-140.64;100.00
7930;BME280;4010;42.698;23.124;2024-03-02T05:33:58;118349.16;;;-140.64;100.00
7930;BME280;4010;42.698;23.124;2024-03-02T05:36:24;118349.16;;;-140.64;100.00
7930;BME280;4010;42.698;23.124;2024-03-02T05:38:51;118349.16;;;-140.64;100.00
7930;BME280;4010;42.698;23.124;2024-03-02T05:41:18;118349.16;;;-140.64;100.00
7930;BME280;4010;42.698;23.124;2024-03-02T05:43:44;118349.16;;;-140.64;100.00
7930;BME280;4010;42.698;23.124;2024-03-02T05:46:11;118349.16;;;-140.64;100.00
7930;BME280;4010;42.698;23.124;2024-03-02T05:48:39;118349.16;;;-140.64;100.00
7930;BME280;4010;42.698;23.124;2024-03-02T05:51:06;118349.16;;;-140.64;100.00
7930;BME280;4010;42.698;23.124;2024-03-02T05:53:33;118349.16;;;-140.64;100.00
7930;BME280;4010;42.698;23.124;2024-03-02T05:56:00;118349.16;;;-140.64;100.00
7930;BME280;4010;42.698;23.124;2024-03-02T05:58:26;118349.16;;;-140.64;100.00
7930;BME280;4010;42.698;23.124;2024-03-02T06:01:03;118349.16;;;-140.64;100.00
7930;BME280;4010;42.698;23.124;2024-03-02T06:03:31;118349.16;;;-140.64;100.00
7930;BME280;4010;42.698;23.124;2024-03-02T06:05:59;118349.16;;;-140.64;100.00
7930;BME280;4010;42.698;23.124;2024-03-02T06:08:26;118349.16;;;-140.64;100.00
7930;BME280;4010;42.698;23.124;2024-03-02T06:10:52;118349.16;;;-140.64;100.00
7930;BME280;4010;42.698;23.124;2024-03-02T06:13:19;118349.16;;;-140.64;100.00
7930;BME280;4010;42.698;23.124;2024-03-02T06:15:46;118349.16;;;-140.64;100.00
7930;BME280;4010;42.698;23.124;2024-03-02T06:18:12;118349.16;;;-140.64;100.00
7930;BME280;4010;42.698;23.124;2024-03-02T06:20:39;118349.16;;;-140.64;100.00
7930;BME280;4010;42.698;23.124;2024-03-02T06:23:07;118349.16;;;-140.64;100.00
7930;BME280;4010;42.698;23.124;2024-03-02T06:25:34;118349.16;;;-140.64;100.00
7930;BME280;4010;42.698;23.124;2024-03-02T06:28:01;118349.16;;;-140.64;100.00
7930;BME280;4010;42.698;23.124;2024-03-02T06:30:28;118349.16;;;-140.64;100.00
7930;BME280;4010;42.698;23.124;2024-03-02T06:32:54;118349.16;;;-140.64;100.00
7930;BME280;4010;42.698;23.124;2024-03-02T06:35:21;118349.16;;;-140.64;100.00
7930;BME280;4010;42.698;23.124;2024-03-02T06:37:48;118349.16;;;-140.64;100.00
7930;BME280;4010;42.698;23.124;2024-03-02T06:40:16;118349.16;;;-140.64;100.00
7930;BME280;4010;42.698;23.124;2024-03-02T06:42:43;118349.16;;;-140.64;100.00
7930;BME280;4010;42.698;23.124;2024-03-02T06:45:10;118349.16;;;-140.64;100.00
7930;BME280;4010;42.698;23.124;2024-03-02T06:47:36;118349.16;;;-140.64;100.00
7930;BME280;4010;42.698;23.124;2024-03-02T06:50:04;118349.16;;;-140.64;100.00
7930;BME280;4010;42.698;23.124;2024-03-02T06:52:32;118349.16;;;-140.64;100.00
7930;BME280;4010;42.698;23.124;2024-03-02T06:54:59;118349.16;;;-140.64;100.00
7930;BME280;4010;42.698;23.124;2024-03-02T06:57:27;118349.16;;;-140.64;100.00
7930;BME280;4010;42.698;23.124;2024-03-02T06:59:53;118349.16;;;-140.64;100.00
7930;BME280;4010;42.698;23.124;2024-03-02T07:02:23;118349.16;;;-140.64;100.00
7930;BME280;4010;42.698;23.124;2024-03-02T07:04:52;118349.16;;;-140.64;100.00
7930;BME280;4010;42.698;23.124;2024-03-02T07:07:19;118349.16;;;-140.64;100.00
7930;BME280;4010;42.698;23.124;2024-03-02T07:09:46;118349.16;;;-140.64;100.00
7930;BME280;4010;42.698;23.124;2024-03-02T07:12:12;118349.16;;;-140.64;100.00
7930;BME280;4010;42.698;23.124;2024-03-02T07:14:41;118349.16;;;-140.64;100.00
7930;BME280;4010;42.698;23.124;2024-03-02T07:17:39;118349.16;;;-140.64;100.00
7930;BME280;4010;42.698;23.124;2024-03-02T07:20:06;118349.16;;;-140.64;100.00
7930;BME280;4010;42.698;23.124;2024-03-02T07:22:34;118349.16;;;-140.64;100.00
7930;BME280;4010;42.698;23.124;2024-03-02T07:25:03;118349.16;;;-140.64;100.00
7930;BME280;4010;42.698;23.124;2024-03-02T07:27:32;118349.16;;;-140.64;100.00
7930;BME280;4010;42.698;23.124;2024-03-02T07:30:02;118349.16;;;-140.64;100.00
7930;BME280;4010;42.698;23.124;2024-03-02T07:32:29;118349.16;;;-140.64;100.00
7930;BME280;4010;42.698;23.124;2024-03-02T07:34:55;118349.16;;;-140.64;100.00
7930;BME280;4010;42.698;23.124;2024-03-02T07:37:22;118349.16;;;-140.64;100.00
7930;BME280;4010;42.698;23.124;2024-03-02T07:39:49;118349.16;;;-140.64;100.00
7930;BME280;4010;42.698;23.124;2024-03-02T07:42:17;118349.16;;;-140.64;100.00
7930;BME280;4010;42.698;23.124;2024-03-02T07:44:44;118349.16;;;-140.64;100.00
7930;BME280;4010;42.698;23.124;2024-03-02T07:47:12;118349.16;;;-140.64;100.00
7930;BME280;4010;42.698;23.124;2024-03-02T07:49:39;118349.16;;;-140.64;100.00
7930;BME280;4010;42.698;23.124;2024-03-02T07:52:06;118349.16;;;-140.64;100.00
7930;BME280;4010;42.698;23.124;2024-03-02T07:54:33;118349.16;;;-140.64;100.00
7930;BME280;4010;42.698;23.124;2024-03-02T07:57:00;118349.16;;;-140.64;100.00
7930;BME280;4010;42.698;23.124;2024-03-02T07:59:27;118349.16;;;-140.64;100.00
7930;BME280;4010;42.698;23.124;2024-03-02T08:01:53;118349.16;;;-140.64;100.00
7930;BME280;4010;42.698;23.124;2024-03-02T08:04:22;118349.16;;;-140.64;100.00
7930;BME280;4010;42.698;23.124;2024-03-02T08:06:48;118349.16;;;-140.64;100.00
7930;BME280;4010;42.698;23.124;2024-03-02T08:09:23;118349.16;;;-140.64;100.00
7930;BME280;4010;42.698;23.124;2024-03-02T08:11:50;118349.16;;;-140.64;100.00
7930;BME280;4010;42.698;23.124;2024-03-02T08:14:16;118349.16;;;-140.64;100.00
7930;BME280;4010;42.698;23.124;2024-03-02T08:16:43;118349.16;;;-140.64;100.00
7930;BME280;4010;42.698;23.124;2024-03-02T08:19:10;118349.16;;;-140.64;100.00
7930;BME280;4010;42.698;23.124;2024-03-02T08:21:38;118349.16;;;-140.64;100.00
7930;BME280;4010;42.698;23.124;2024-03-02T08:24:06;118349.16;;;-140.64;100.00
7930;BME280;4010;42.698;23.124;2024-03-02T08:26:33;118349.16;;;-140.64;100.00
7930;BME280;4010;42.698;23.124;2024-03-02T08:29:00;118349.16;;;-140.64;100.00
7930;BME280;4010;42.698;23.124;2024-03-02T08:31:28;118349.16;;;-140.64;100.00
7930;BME280;4010;42.698;23.124;2024-03-02T08:33:55;118349.16;;;-140.64;100.00
7930;BME280;4010;42.698;23.124;2024-03-02T08:36:23;118349.16;;;-140.64;98.61
7930;BME280;4010;42.698;23.124;2024-03-02T08:38:51;118349.16;;;-140.64;98.52
7930;BME280;4010;42.698;23.124;2024-03-02T08:41:18;118349.16;;;-140.64;99.21
7930;BME280;4010;42.698;23.124;2024-03-02T08:43:44;118349.16;;;-140.64;98.69
7930;BME280;4010;42.698;23.124;2024-03-02T08:46:11;118349.16;;;-140.64;98.66
7930;BME280;4010;42.698;23.124;2024-03-02T08:48:38;118349.16;;;-140.64;99.76
7930;BME280;4010;42.698;23.124;2024-03-02T08:51:05;118349.16;;;-140.64;99.67
7930;BME280;4010;42.698;23.124;2024-03-02T08:53:33;118349.16;;;-140.64;100.00
7930;BME280;4010;42.698;23.124;2024-03-02T08:56:02;118349.16;;;-140.64;100.00
7930;BME280;4010;42.698;23.124;2024-03-02T08:58:30;118349.16;;;-140.64;98.50
7930;BME280;4010;42.698;23.124;2024-03-02T09:01:00;118349.16;;;-140.64;97.47
7930;BME280;4010;42.698;23.124;2024-03-02T09:03:28;118349.16;;;-140.64;97.49
7930;BME280;4010;42.698;23.124;2024-03-02T09:05:54;118349.16;;;-140.64;97.39
7930;BME280;4010;42.698;23.124;2024-03-02T09:08:21;118349.16;;;-140.64;96.94
7930;BME280;4010;42.698;23.124;2024-03-02T09:10:48;118349.16;;;-140.64;97.25
7930;BME280;4010;42.698;23.124;2024-03-02T09:13:16;118349.16;;;-140.64;97.96
7930;BME280;4010;42.698;23.124;2024-03-02T09:15:43;118349.16;;;-140.64;97.94
7930;BME280;4010;42.698;23.124;2024-03-02T09:18:10;118349.16;;;-140.64;97.81
7930;BME280;4010;42.698;23.124;2024-03-02T09:20:37;118349.16;;;-140.64;98.60
7930;BME280;4010;42.698;23.124;2024-03-02T09:23:03;118349.16;;;-140.64;99.78
7930;BME280;4010;42.698;23.124;2024-03-02T09:25:30;118349.16;;;-140.64;99.24
7930;BME280;4010;42.698;23.124;2024-03-02T09:27:57;118349.16;;;-140.64;99.12
7930;BME280;4010;42.698;23.124;2024-03-02T09:30:25;118349.16;;;-140.64;98.79
7930;BME280;4010;42.698;23.124;2024-03-02T09:32:52;118349.16;;;-140.64;97.62
7930;BME280;4010;42.698;23.124;2024-03-02T09:35:19;118349.16;;;-140.64;97.88
7930;BME280;4010;42.698;23.124;2024-03-02T09:37:45;118349.16;;;-140.64;97.67
7930;BME280;4010;42.698;23.124;2024-03-02T09:40:13;118349.16;;;-140.64;97.93
7930;BME280;4010;42.698;23.124;2024-03-02T09:42:41;118349.16;;;-140.64;97.51
7930;BME280;4010;42.698;23.124;2024-03-02T09:45:12;118349.16;;;-140.64;97.48
7930;BME280;4010;42.698;23.124;2024-03-02T09:47:40;118349.16;;;-140.64;97.26
7930;BME280;4010;42.698;23.124;2024-03-02T09:50:07;118349.16;;;-140.64;97.19
7930;BME280;4010;42.698;23.124;2024-03-02T09:52:36;118349.16;;;-140.64;96.76
7930;BME280;4010;42.698;23.124;2024-03-02T09:55:04;118349.16;;;-140.64;96.49
7930;BME280;4010;42.698;23.124;2024-03-02T09:57:31;118349.16;;;-140.64;96.80
7930;BME280;4010;42.698;23.124;2024-03-02T09:59:58;118349.16;;;-140.64;96.62
7930;BME280;4010;42.698;23.124;2024-03-02T10:02:25;118349.16;;;-140.64;96.73
7930;BME280;4010;42.698;23.124;2024-03-02T10:04:53;118349.16;;;-140.64;96.98
7930;BME280;4010;42.698;23.124;2024-03-02T10:07:20;118349.16;;;-140.64;96.87
7930;BME280;4010;42.698;23.124;2024-03-02T10:09:48;118349.16;;;-140.64;96.59
7930;BME280;4010;42.698;23.124;2024-03-02T10:12:17;118349.16;;;-140.64;95.00
7930;BME280;4010;42.698;23.124;2024-03-02T10:14:45;118349.16;;;-140.64;94.76
7930;BME280;4010;42.698;23.124;2024-03-02T10:17:14;118349.16;;;-140.64;95.15
7930;BME280;4010;42.698;23.124;2024-03-02T10:19:41;118349.16;;;-140.64;94.35
7930;BME280;4010;42.698;23.124;2024-03-02T10:22:10;118349.16;;;-140.64;93.49
7930;BME280;4010;42.698;23.124;2024-03-02T10:24:38;118349.16;;;-140.64;92.48
7930;BME280;4010;42.698;23.124;2024-03-02T10:27:09;118349.16;;;-140.64;92.30
7930;BME280;4010;42.698;23.124;2024-03-02T10:29:39;118349.16;;;-140.64;92.19
7930;BME280;4010;42.698;23.124;2024-03-02T10:32:09;118349.16;;;-140.64;90.39
7930;BME280;4010;42.698;23.124;2024-03-02T10:34:36;118349.16;;;-140.64;89.92
7930;BME280;4010;42.698;23.124;2024-03-02T10:37:03;118349.16;;;-140.64;90.43
7930;BME280;4010;42.698;23.124;2024-03-02T10:39:32;118349.16;;;-140.64;90.83
7930;BME280;4010;42.698;23.124;2024-03-02T10:42:02;118349.16;;;-140.64;90.34
7930;BME280;4010;42.698;23.124;2024-03-02T10:44:30;118349.16;;;-140.64;90.57
7930;BME280;4010;42.698;23.124;2024-03-02T10:47:00;118349.16;;;-140.64;91.07
7930;BME280;4010;42.698;23.124;2024-03-02T10:49:29;118349.16;;;-140.64;91.15
7930;BME280;4010;42.698;23.124;2024-03-02T10:51:56;118349.16;;;-140.64;91.14
7930;BME280;4010;42.698;23.124;2024-03-02T10:54:23;118349.16;;;-140.64;90.96
7930;BME280;4010;42.698;23.124;2024-03-02T10:56:53;118349.16;;;-140.64;90.63
7930;BME280;4010;42.698;23.124;2024-03-02T10:59:27;118349.16;;;-140.64;90.10
7930;BME280;4010;42.698;23.124;2024-03-02T11:01:56;118349.16;;;-140.64;90.92
7930;BME280;4010;42.698;23.124;2024-03-02T11:04:25;118349.16;;;-140.64;90.21
7930;BME280;4010;42.698;23.124;2024-03-02T11:06:56;118349.16;;;-140.64;90.00
7930;BME280;4010;42.698;23.124;2024-03-02T11:09:27;118349.16;;;-140.64;90.13
7930;BME280;4010;42.698;23.124;2024-03-02T11:12:00;118349.16;;;-140.64;90.04
7930;BME280;4010;42.698;23.124;2024-03-02T11:14:30;118349.16;;;-140.64;89.73
7930;BME280;4010;42.698;23.124;2024-03-02T11:16:58;118349.16;;;-140.64;90.87
7930;BME280;4010;42.698;23.124;2024-03-02T11:19:25;118349.16;;;-140.64;91.28
7930;BME280;4010;42.698;23.124;2024-03-02T11:21:53;118349.16;;;-140.64;90.26
7930;BME280;4010;42.698;23.124;2024-03-02T11:24:30;118349.16;;;-140.64;88.21
7930;BME280;4010;42.698;23.124;2024-03-02T11:27:02;118349.16;;;-140.64;88.48
7930;BME280;4010;42.698;23.124;2024-03-02T11:29:45;118349.16;;;-140.64;88.81
7930;BME280;4010;42.698;23.124;2024-03-02T11:32:21;118349.16;;;-140.64;87.35
7930;BME280;4010;42.698;23.124;2024-03-02T11:34:49;118349.16;;;-140.64;86.32
7930;BME280;4010;42.698;23.124;2024-03-02T11:37:17;118349.16;;;-140.64;87.00
7930;BME280;4010;42.698;23.124;2024-03-02T11:39:46;118349.16;;;-140.64;85.82
7930;BME280;4010;42.698;23.124;2024-03-02T11:42:15;118349.16;;;-140.64;85.33
7930;BME280;4010;42.698;23.124;2024-03-02T11:44:43;118349.16;;;-140.64;86.07
7930;BME280;4010;42.698;23.124;2024-03-02T11:47:12;118349.16;;;-140.64;84.22
7930;BME280;4010;42.698;23.124;2024-03-02T11:49:41;118349.16;;;-140.64;84.77
7930;BME280;4010;42.698;23.124;2024-03-02T11:52:11;118349.16;;;-140.64;84.03
7930;BME280;4010;42.698;23.124;2024-03-02T11:54:38;118349.16;;;-140.64;83.83
7930;BME280;4010;42.698;23.124;2024-03-02T11:57:06;118349.16;;;-140.64;83.11
7930;BME280;4010;42.698;23.124;2024-03-02T11:59:35;118349.16;;;-140.64;82.51
7930;BME280;4010;42.698;23.124;2024-03-02T12:02:02;118349.16;;;-140.64;82.44
7930;BME280;4010;42.698;23.124;2024-03-02T12:04:29;118349.16;;;-140.64;83.07
7930;BME280;4010;42.698;23.124;2024-03-02T12:06:58;118349.16;;;-140.64;83.49
7930;BME280;4010;42.698;23.124;2024-03-02T12:09:29;118349.16;;;-140.64;83.91
7930;BME280;4010;42.698;23.124;2024-03-02T12:12:06;118349.16;;;-140.64;85.12
7930;BME280;4010;42.698;23.124;2024-03-02T12:14:36;118349.16;;;-140.64;85.02
7930;BME280;4010;42.698;23.124;2024-03-02T12:17:04;118349.16;;;-140.64;86.97
7930;BME280;4010;42.698;23.124;2024-03-02T12:19:31;118349.16;;;-140.64;86.84
7930;BME280;4010;42.698;23.124;2024-03-02T12:21:58;118349.16;;;-140.64;86.58
7930;BME280;4010;42.698;23.124;2024-03-02T12:24:27;118349.16;;;-140.64;86.61
7930;BME280;4010;42.698;23.124;2024-03-02T12:26:54;118349.16;;;-140.64;86.47
7930;BME280;4010;42.698;23.124;2024-03-02T12:29:22;118349.16;;;-140.64;87.81
7930;BME280;4010;42.698;23.124;2024-03-02T12:31:51;118349.16;;;-140.64;88.53
7930;BME280;4010;42.698;23.124;2024-03-02T12:34:18;118349.16;;;-140.64;89.56
7930;BME280;4010;42.698;23.124;2024-03-02T12:36:46;118349.16;;;-140.64;89.54
7930;BME280;4010;42.698;23.124;2024-03-02T12:39:15;118349.16;;;-140.64;89.05